createdAt,value
2018-08-20T00:00:38.217Z,21.00
2018-08-20T00:03:06.321Z,21.00
2018-08-20T00:05:37.332Z,21.00
2018-08-20T00:08:05.541Z,21.00
2018-08-20T00:10:33.774Z,20.90
2018-08-20T00:13:01.914Z,20.80
2018-08-20T00:15:30.137Z,20.70
2018-08-20T00:17:58.301Z,20.70
2018-08-20T00:20:26.548Z,20.70
2018-08-20T00:22:54.914Z,20.70
2018-08-20T00:25:23.109Z,20.70
2018-08-20T00:27:51.228Z,20.70
2018-08-20T00:30:20.029Z,20.70
2018-08-20T00:32:49.014Z,20.60
2018-08-20T00:35:18.914Z,20.60
2018-08-20T00:37:50.704Z,20.60
2018-08-20T00:40:19.490Z,20.60
2018-08-20T00:42:47.614Z,20.60
2018-08-20T00:45:15.672Z,20.60
2018-08-20T00:47:43.753Z,20.60
2018-08-20T00:50:11.967Z,20.50
2018-08-20T00:52:40.078Z,20.60
2018-08-20T00:55:10.120Z,20.60
2018-08-20T00:57:38.248Z,20.60
2018-08-20T01:00:07.233Z,20.60
2018-08-20T01:02:35.329Z,20.50
2018-08-20T01:05:03.446Z,20.50
2018-08-20T01:07:31.686Z,20.50
2018-08-20T01:09:59.762Z,20.50
2018-08-20T01:12:28.333Z,20.50
2018-08-20T01:14:56.928Z,20.60
2018-08-20T01:17:25.000Z,20.50
2018-08-20T01:19:53.074Z,20.60
2018-08-20T01:22:21.454Z,20.50
2018-08-20T01:24:49.814Z,20.50
2018-08-20T01:27:22.153Z,20.40
2018-08-20T01:29:50.814Z,20.40
2018-08-20T01:32:18.963Z,20.30
2018-08-20T01:34:47.092Z,20.30
2018-08-20T01:37:16.326Z,20.30
2018-08-20T01:39:44.848Z,20.20
2018-08-20T01:42:13.477Z,20.20
2018-08-20T01:44:41.702Z,20.20
2018-08-20T01:47:09.787Z,20.20
2018-08-20T01:49:37.912Z,20.20
2018-08-20T01:52:06.814Z,20.20
2018-08-20T01:54:35.849Z,20.10
2018-08-20T01:57:04.326Z,20.10
2018-08-20T01:59:32.398Z,20.10
2018-08-20T02:02:00.723Z,20.10
2018-08-20T02:04:28.976Z,20.10
2018-08-20T02:06:57.075Z,20.10
2018-08-20T02:09:25.180Z,20.10
2018-08-20T02:11:53.284Z,20.10
2018-08-20T02:14:21.426Z,20.10
2018-08-20T02:16:49.515Z,20.10
2018-08-20T02:19:17.641Z,20.10
2018-08-20T02:21:45.747Z,20.00
2018-08-20T02:24:13.864Z,20.00
2018-08-20T02:26:41.959Z,20.00
2018-08-20T02:29:10.060Z,20.00
2018-08-20T02:31:38.172Z,20.00
2018-08-20T02:34:06.318Z,19.90
2018-08-20T02:36:34.466Z,20.00
2018-08-20T02:39:02.603Z,19.90
2018-08-20T02:41:30.686Z,19.90
2018-08-20T02:43:58.787Z,19.90
2018-08-20T02:46:38.506Z,19.80
2018-08-20T02:49:06.823Z,19.80
2018-08-20T02:51:34.891Z,19.80
2018-08-20T02:54:02.968Z,19.80
2018-08-20T02:56:31.045Z,19.70
2018-08-20T02:58:59.145Z,19.60
2018-08-20T03:01:27.379Z,19.60
2018-08-20T03:03:55.467Z,19.60
2018-08-20T03:06:23.566Z,19.60
2018-08-20T03:08:51.650Z,19.60
2018-08-20T03:11:19.770Z,19.50
2018-08-20T03:13:48.101Z,19.40
2018-08-20T03:16:16.218Z,19.40
2018-08-20T03:18:44.345Z,19.30
2018-08-20T03:21:12.477Z,19.20
2018-08-20T03:23:40.686Z,19.20
2018-08-20T03:26:08.796Z,19.20
2018-08-20T03:28:36.908Z,19.10
2018-08-20T03:31:05.062Z,19.00
2018-08-20T03:33:33.955Z,19.10
2018-08-20T03:36:02.078Z,19.10
2018-08-20T03:38:30.172Z,19.10
2018-08-20T03:40:58.249Z,19.10
2018-08-20T03:43:26.369Z,19.10
2018-08-20T03:45:54.530Z,19.10
2018-08-20T03:48:22.671Z,19.10
2018-08-20T03:50:50.774Z,19.00
2018-08-20T03:53:18.926Z,19.00
2018-08-20T03:55:47.041Z,19.00
2018-08-20T03:58:15.248Z,19.00
2018-08-20T04:00:43.431Z,19.00
2018-08-20T04:03:11.503Z,19.00
2018-08-20T04:05:39.612Z,19.00
2018-08-20T04:08:07.714Z,19.00
2018-08-20T04:10:35.866Z,19.00
2018-08-20T04:13:03.958Z,19.00
2018-08-20T04:15:32.092Z,19.00
2018-08-20T04:18:00.191Z,19.10
2018-08-20T04:20:28.399Z,19.10
2018-08-20T04:22:56.859Z,19.10
2018-08-20T04:25:24.997Z,19.10
2018-08-20T04:27:53.089Z,19.10
2018-08-20T04:30:21.231Z,19.10
2018-08-20T04:32:49.386Z,19.00
2018-08-20T04:35:17.502Z,19.10
2018-08-20T04:37:45.646Z,19.10
2018-08-20T04:40:13.751Z,19.20
2018-08-20T04:42:41.932Z,19.10
2018-08-20T04:45:10.092Z,19.20
2018-08-20T04:47:38.187Z,19.20
2018-08-20T04:50:08.172Z,19.20
2018-08-20T04:52:36.219Z,19.30
2018-08-20T04:55:04.551Z,19.30
2018-08-20T04:57:32.726Z,19.50
2018-08-20T05:00:01.079Z,19.60
2018-08-20T05:02:29.256Z,19.70
2018-08-20T05:04:57.351Z,19.70
2018-08-20T05:07:25.426Z,19.80
2018-08-20T05:09:53.497Z,19.90
2018-08-20T05:12:21.620Z,19.90
2018-08-20T05:14:50.591Z,20.00
2018-08-20T05:17:18.714Z,19.90
2018-08-20T05:19:46.866Z,19.90
2018-08-20T05:22:14.963Z,20.00
2018-08-20T05:24:43.223Z,20.00
2018-08-20T05:27:11.360Z,20.00
2018-08-20T05:29:39.516Z,20.10
2018-08-20T05:32:07.824Z,20.10
2018-08-20T05:34:35.926Z,20.30
2018-08-20T05:37:04.299Z,20.40
2018-08-20T05:39:32.382Z,20.60
2018-08-20T05:42:00.525Z,20.20
2018-08-20T05:44:28.738Z,21.00
2018-08-20T05:46:57.822Z,21.00
2018-08-20T05:49:25.930Z,21.10
2018-08-20T05:51:54.042Z,21.30
2018-08-20T05:54:22.182Z,21.50
2018-08-20T05:56:50.302Z,21.50
2018-08-20T05:59:18.494Z,21.40
2018-08-20T06:01:46.653Z,21.40
2018-08-20T06:04:14.763Z,21.50
2018-08-20T06:06:42.862Z,21.60
2018-08-20T06:09:11.518Z,21.50
2018-08-20T06:11:39.751Z,21.70
2018-08-20T06:14:07.846Z,21.70
2018-08-20T06:16:36.001Z,21.60
2018-08-20T06:19:04.389Z,21.70
2018-08-20T06:21:33.171Z,21.80
2018-08-20T06:24:01.292Z,21.90
2018-08-20T06:26:29.617Z,22.00
2018-08-20T06:28:58.719Z,22.00
2018-08-20T06:31:26.797Z,22.20
2018-08-20T06:33:54.919Z,22.20
2018-08-20T06:36:23.044Z,22.20
2018-08-20T06:38:51.136Z,22.10
2018-08-20T06:41:19.291Z,22.10
2018-08-20T06:43:47.417Z,22.10
2018-08-20T06:46:15.529Z,22.10
2018-08-20T06:48:43.654Z,22.20
2018-08-20T06:51:11.779Z,22.30
2018-08-20T06:53:39.991Z,22.30
2018-08-20T06:56:08.090Z,22.40
2018-08-20T06:58:36.187Z,22.60
2018-08-20T07:01:04.261Z,22.70
2018-08-20T07:03:32.342Z,22.70
2018-08-20T07:06:00.460Z,22.70
2018-08-20T07:08:28.566Z,22.50
2018-08-20T07:10:56.663Z,22.50
2018-08-20T07:13:34.827Z,22.50
2018-08-20T07:16:03.111Z,22.50
2018-08-20T07:18:31.262Z,22.50
2018-08-20T07:20:59.454Z,22.60
2018-08-20T07:23:27.845Z,22.60
2018-08-20T07:25:55.973Z,22.60
2018-08-20T07:28:24.106Z,22.60
2018-08-20T07:30:52.210Z,22.70
2018-08-20T07:33:20.357Z,22.70
2018-08-20T07:35:48.521Z,22.60
2018-08-20T07:38:16.686Z,22.70
2018-08-20T07:40:44.838Z,22.80
2018-08-20T07:43:12.938Z,22.90
2018-08-20T07:45:41.011Z,23.10
2018-08-20T07:48:09.174Z,23.20
2018-08-20T07:50:37.321Z,23.30
2018-08-20T07:53:05.728Z,23.30
2018-08-20T07:55:33.880Z,23.40
2018-08-20T07:58:02.195Z,23.40
2018-08-20T08:00:30.323Z,23.50
2018-08-20T08:02:58.398Z,23.40
2018-08-20T08:05:26.521Z,23.40
2018-08-20T08:07:54.687Z,23.20
2018-08-20T08:10:22.855Z,23.20
2018-08-20T08:12:50.983Z,23.20
2018-08-20T08:15:19.229Z,23.10
2018-08-20T08:17:47.426Z,23.30
2018-08-20T08:20:16.088Z,23.30
2018-08-20T08:22:44.291Z,23.30
2018-08-20T08:25:12.389Z,23.30
2018-08-20T08:27:40.489Z,23.30
2018-08-20T08:30:13.859Z,23.40
2018-08-20T08:32:42.139Z,23.40
2018-08-20T08:35:10.922Z,23.40
2018-08-20T08:37:39.386Z,23.40
2018-08-20T08:40:07.817Z,23.50
2018-08-20T08:42:35.976Z,23.40
2018-08-20T08:45:06.449Z,23.50
2018-08-20T08:47:34.735Z,23.40
2018-08-20T08:50:02.911Z,23.40
2018-08-20T08:52:31.041Z,23.40
2018-08-20T08:54:59.223Z,23.30
2018-08-20T08:57:27.310Z,23.30
2018-08-20T08:59:55.585Z,23.30
2018-08-20T09:02:23.704Z,23.10
2018-08-20T09:04:51.839Z,23.10
2018-08-20T09:07:19.938Z,23.10
2018-08-20T09:09:48.028Z,23.30
2018-08-20T09:12:16.185Z,23.40
2018-08-20T09:14:44.372Z,23.40
2018-08-20T09:17:12.587Z,23.50
2018-08-20T09:19:40.679Z,23.50
2018-08-20T09:22:08.738Z,23.50
2018-08-20T09:24:36.850Z,23.50
2018-08-20T09:27:05.004Z,23.60
2018-08-20T09:29:33.098Z,23.80
2018-08-20T09:32:01.194Z,24.00
2018-08-20T09:34:29.314Z,24.00
2018-08-20T09:36:57.416Z,24.10
2018-08-20T09:39:25.527Z,24.10
2018-08-20T09:41:53.633Z,24.20
2018-08-20T09:44:21.723Z,24.00
2018-08-20T09:46:49.863Z,24.00
2018-08-20T09:49:18.071Z,24.00
2018-08-20T09:51:46.174Z,24.00
2018-08-20T09:54:14.298Z,24.00
2018-08-20T09:56:42.410Z,24.10
2018-08-20T09:59:10.577Z,24.00
2018-08-20T10:01:38.642Z,24.00
2018-08-20T10:04:06.810Z,24.00
2018-08-20T10:06:34.903Z,24.00
2018-08-20T10:09:03.255Z,24.00
2018-08-20T10:11:31.393Z,24.00
2018-08-20T10:13:59.501Z,23.90
2018-08-20T10:16:27.650Z,24.00
2018-08-20T10:18:55.779Z,23.90
2018-08-20T10:21:23.939Z,23.80
2018-08-20T10:23:52.121Z,23.60
2018-08-20T10:26:20.268Z,23.60
2018-08-20T10:28:48.451Z,23.70
2018-08-20T10:31:16.532Z,23.70
2018-08-20T10:33:44.658Z,23.60
2018-08-20T10:36:12.770Z,23.60
2018-08-20T10:38:40.905Z,23.70
2018-08-20T10:41:09.007Z,23.80
2018-08-20T10:43:37.265Z,24.10
2018-08-20T10:46:10.728Z,24.10
2018-08-20T10:48:38.822Z,24.20
2018-08-20T10:51:07.111Z,24.30
2018-08-20T10:53:35.202Z,24.50
2018-08-20T10:56:03.293Z,24.50
2018-08-20T10:58:31.441Z,24.50
2018-08-20T11:00:59.538Z,24.60
2018-08-20T11:03:27.656Z,24.50
2018-08-20T11:05:55.823Z,24.50
2018-08-20T11:08:23.871Z,24.50
2018-08-20T11:10:52.005Z,24.50
2018-08-20T11:13:20.074Z,24.30
2018-08-20T11:15:48.255Z,24.20
2018-08-20T11:18:16.348Z,24.10
2018-08-20T11:20:44.453Z,24.10
2018-08-20T11:23:12.618Z,24.00
2018-08-20T11:25:40.795Z,24.10
2018-08-20T11:28:08.967Z,24.00
2018-08-20T11:30:37.142Z,23.90
2018-08-20T11:33:05.349Z,23.80
2018-08-20T11:35:33.529Z,23.90
2018-08-20T11:38:01.714Z,23.80
2018-08-20T11:40:29.835Z,23.90
2018-08-20T11:42:57.953Z,24.00
2018-08-20T11:45:26.072Z,24.00
2018-08-20T11:47:54.191Z,24.00
2018-08-20T11:50:22.287Z,24.00
2018-08-20T11:52:50.423Z,23.90
2018-08-20T11:55:18.525Z,23.60
2018-08-20T11:57:46.876Z,23.50
2018-08-20T12:00:14.982Z,23.40
2018-08-20T12:02:43.114Z,23.30
2018-08-20T12:05:11.200Z,23.40
2018-08-20T12:07:39.380Z,23.40
2018-08-20T12:10:08.414Z,23.40
2018-08-20T12:12:36.682Z,23.30
2018-08-20T12:15:05.943Z,23.40
2018-08-20T12:17:34.087Z,23.40
2018-08-20T12:20:02.172Z,23.40
2018-08-20T12:22:30.364Z,23.40
2018-08-20T12:24:58.399Z,23.50
2018-08-20T12:27:26.491Z,23.50
2018-08-20T12:29:54.768Z,23.40
2018-08-20T12:32:22.850Z,23.50
2018-08-20T12:34:51.241Z,23.50
2018-08-20T12:37:19.385Z,23.50
2018-08-20T12:39:47.488Z,23.70
2018-08-20T12:42:15.586Z,23.80
2018-08-20T12:44:43.703Z,24.00
2018-08-20T12:47:11.807Z,24.10
2018-08-20T12:49:39.877Z,23.90
2018-08-20T12:52:08.522Z,23.80
2018-08-20T12:54:36.623Z,23.70
2018-08-20T12:57:04.772Z,23.60
2018-08-20T12:59:32.860Z,23.50
2018-08-20T13:02:01.044Z,23.50
2018-08-20T13:04:29.118Z,23.60
2018-08-20T13:06:57.251Z,23.70
2018-08-20T13:09:25.375Z,24.00
2018-08-20T13:11:53.500Z,24.10
2018-08-20T13:14:21.555Z,24.40
2018-08-20T13:16:49.777Z,24.50
2018-08-20T13:19:17.922Z,24.40
2018-08-20T13:21:46.572Z,24.40
2018-08-20T13:24:14.651Z,24.30
2018-08-20T13:26:42.748Z,24.10
2018-08-20T13:29:10.842Z,24.00
2018-08-20T13:31:38.957Z,24.00
2018-08-20T13:34:07.361Z,24.10
2018-08-20T13:36:35.472Z,24.10
2018-08-20T13:39:04.842Z,24.20
2018-08-20T13:41:32.935Z,24.40
2018-08-20T13:44:01.118Z,24.40
2018-08-20T13:46:29.182Z,24.30
2018-08-20T13:48:57.262Z,24.10
2018-08-20T13:51:25.393Z,24.00
2018-08-20T13:53:53.486Z,24.00
2018-08-20T13:56:21.601Z,24.00
2018-08-20T13:58:49.867Z,24.10
2018-08-20T14:01:18.002Z,24.30
2018-08-20T14:03:46.093Z,24.30
2018-08-20T14:06:14.314Z,24.30
2018-08-20T14:08:42.446Z,24.40
2018-08-20T14:11:10.594Z,24.50
2018-08-20T14:13:38.988Z,24.30
2018-08-20T14:16:07.111Z,24.50
2018-08-20T14:18:35.207Z,24.50
2018-08-20T14:21:09.011Z,24.50
2018-08-20T14:23:37.098Z,24.50
2018-08-20T14:26:05.204Z,24.50
2018-08-20T14:28:33.357Z,24.50
2018-08-20T14:31:01.448Z,24.40
2018-08-20T14:33:29.605Z,24.40
2018-08-20T14:35:57.714Z,24.30
2018-08-20T14:38:25.857Z,24.30
2018-08-20T14:40:53.929Z,24.30
2018-08-20T14:43:22.042Z,24.30
2018-08-20T14:45:55.705Z,24.30
2018-08-20T14:48:23.885Z,24.30
2018-08-20T14:50:52.018Z,24.30
2018-08-20T14:53:20.189Z,24.30
2018-08-20T14:55:48.229Z,24.30
2018-08-20T14:58:16.339Z,24.30
2018-08-20T15:00:44.422Z,24.20
2018-08-20T15:03:12.569Z,24.10
2018-08-20T15:05:40.854Z,24.00
2018-08-20T15:08:08.943Z,24.00
2018-08-20T15:10:37.062Z,23.90
2018-08-20T15:13:05.174Z,23.80
2018-08-20T15:15:33.533Z,23.80
2018-08-20T15:18:01.681Z,23.80
2018-08-20T15:20:29.833Z,23.80
2018-08-20T15:22:57.950Z,23.80
2018-08-20T15:25:26.066Z,23.80
2018-08-20T15:27:54.303Z,23.80
2018-08-20T15:30:22.511Z,23.70
2018-08-20T15:32:50.695Z,23.70
2018-08-20T15:35:18.769Z,23.80
2018-08-20T15:37:46.879Z,23.80
2018-08-20T15:40:15.022Z,23.80
2018-08-20T15:42:43.119Z,23.70
2018-08-20T15:45:11.252Z,23.70
2018-08-20T15:47:39.343Z,23.20
2018-08-20T15:50:07.531Z,23.70
2018-08-20T15:52:35.663Z,23.80
2018-08-20T15:55:04.206Z,24.00
2018-08-20T15:57:32.312Z,23.90
2018-08-20T16:00:00.408Z,23.70
2018-08-20T16:02:29.055Z,23.70
2018-08-20T16:04:57.148Z,23.60
2018-08-20T16:07:25.310Z,23.50
2018-08-20T16:09:53.438Z,23.40
2018-08-20T16:12:21.544Z,23.30
2018-08-20T16:14:49.712Z,23.30
2018-08-20T16:17:17.802Z,23.30
2018-08-20T16:19:45.985Z,23.40
2018-08-20T16:22:14.063Z,23.40
2018-08-20T16:24:42.195Z,23.40
2018-08-20T16:27:10.355Z,23.30
2018-08-20T16:29:38.492Z,23.30
2018-08-20T16:32:06.562Z,23.20
2018-08-20T16:34:34.697Z,23.20
2018-08-20T16:37:02.857Z,23.20
2018-08-20T16:39:30.964Z,23.20
2018-08-20T16:41:59.063Z,23.20
2018-08-20T16:44:27.214Z,23.20
2018-08-20T16:46:55.286Z,23.20
2018-08-20T16:49:23.429Z,23.20
2018-08-20T16:51:51.557Z,23.20
2018-08-20T16:54:19.674Z,23.20
2018-08-20T16:56:47.875Z,23.30
2018-08-20T16:59:16.182Z,23.30
2018-08-20T17:01:44.292Z,23.20
2018-08-20T17:04:28.070Z,23.20
2018-08-20T17:06:58.021Z,23.20
2018-08-20T17:09:27.322Z,23.20
2018-08-20T17:11:55.468Z,23.20
2018-08-20T17:14:23.593Z,23.20
2018-08-20T17:16:51.698Z,23.10
2018-08-20T17:19:19.834Z,23.00
2018-08-20T17:21:48.034Z,22.90
2018-08-20T17:24:24.379Z,22.90
2018-08-20T17:26:52.936Z,22.90
2018-08-20T17:29:22.224Z,22.90
2018-08-20T17:31:50.364Z,22.80
2018-08-20T17:34:18.451Z,22.70
2018-08-20T17:36:46.619Z,22.70
2018-08-20T17:39:14.769Z,22.60
2018-08-20T17:41:43.238Z,22.60
2018-08-20T17:44:11.366Z,22.60
2018-08-20T17:46:39.779Z,22.60
2018-08-20T17:49:10.355Z,22.50
2018-08-20T17:51:38.456Z,22.50
2018-08-20T17:54:06.581Z,22.50
2018-08-20T17:56:34.871Z,22.40
2018-08-20T17:59:08.374Z,22.40
2018-08-20T18:01:36.680Z,22.40
2018-08-20T18:04:05.030Z,22.30
2018-08-20T18:06:52.907Z,22.30
2018-08-20T18:09:21.091Z,22.30
2018-08-20T18:11:51.158Z,22.30
2018-08-20T18:14:21.057Z,22.30
2018-08-20T18:16:49.236Z,22.30
2018-08-20T18:19:17.608Z,22.30
2018-08-20T18:21:45.865Z,22.20
2018-08-20T18:24:16.078Z,22.20
2018-08-20T18:26:50.125Z,22.20
2018-08-20T18:29:18.306Z,22.20
2018-08-20T18:31:52.821Z,22.20
2018-08-20T18:34:21.310Z,22.20
2018-08-20T18:36:49.481Z,22.20
2018-08-20T18:39:17.651Z,22.10
2018-08-20T18:42:02.830Z,22.20
2018-08-20T18:44:31.006Z,22.20
2018-08-20T18:46:59.126Z,22.20
2018-08-20T18:49:27.391Z,22.10
2018-08-20T18:52:02.228Z,22.10
2018-08-20T18:54:39.668Z,22.20
2018-08-20T18:57:07.802Z,22.20
2018-08-20T18:59:37.147Z,22.20
2018-08-20T19:02:06.111Z,22.20
2018-08-20T19:04:41.570Z,22.20
2018-08-20T19:07:10.815Z,22.20
2018-08-20T19:09:39.892Z,22.20
2018-08-20T19:12:08.389Z,22.10
2018-08-20T19:14:36.466Z,22.10
2018-08-20T19:17:12.990Z,22.10
2018-08-20T19:19:45.453Z,22.00
2018-08-20T19:22:17.866Z,22.10
2018-08-20T19:24:45.966Z,22.00
2018-08-20T19:27:14.108Z,22.10
2018-08-20T19:29:42.235Z,22.10
2018-08-20T19:32:10.620Z,22.10
2018-08-20T19:34:38.813Z,22.00
2018-08-20T19:37:07.946Z,22.00
2018-08-20T19:39:36.310Z,22.00
2018-08-20T19:42:04.806Z,22.00
2018-08-20T19:44:33.034Z,22.00
2018-08-20T19:47:01.186Z,22.00
2018-08-20T19:49:29.363Z,22.00
2018-08-20T19:51:58.484Z,22.00
2018-08-20T19:54:27.295Z,22.10
2018-08-20T19:56:55.630Z,22.10
2018-08-20T19:59:29.276Z,22.10
2018-08-20T20:01:57.378Z,22.10
2018-08-20T20:04:25.539Z,22.00
2018-08-20T20:06:53.665Z,22.10
2018-08-20T20:09:21.805Z,22.00
2018-08-20T20:11:50.982Z,22.00
2018-08-20T20:14:19.134Z,21.90
2018-08-20T20:16:54.366Z,21.90
2018-08-20T20:19:22.630Z,21.90
2018-08-20T20:21:50.785Z,21.90
2018-08-20T20:24:18.950Z,21.90
2018-08-20T20:26:47.066Z,21.80
2018-08-20T20:29:15.253Z,21.80
2018-08-20T20:31:43.662Z,21.80
2018-08-20T20:34:11.845Z,21.70
2018-08-20T20:36:40.074Z,21.70
2018-08-20T20:39:09.457Z,21.70
2018-08-20T20:41:37.595Z,21.70
2018-08-20T20:44:06.080Z,21.70
2018-08-20T20:46:34.281Z,21.60
2018-08-20T20:49:02.410Z,21.60
2018-08-20T20:51:30.592Z,21.50
2018-08-20T20:53:58.738Z,21.40
2018-08-20T20:56:26.923Z,21.50
2018-08-20T20:58:55.047Z,21.40
2018-08-20T21:01:23.196Z,21.40
2018-08-20T21:03:51.311Z,21.40
2018-08-20T21:06:19.444Z,21.40
2018-08-20T21:08:48.606Z,21.40
2018-08-20T21:11:17.727Z,21.30
2018-08-20T21:13:46.163Z,21.30
2018-08-20T21:16:15.304Z,21.30
2018-08-20T21:18:45.636Z,21.30
2018-08-20T21:21:15.335Z,21.40
2018-08-20T21:23:43.490Z,21.40
2018-08-20T21:26:11.689Z,21.40
2018-08-20T21:28:42.532Z,21.40
2018-08-20T21:31:11.202Z,21.40
2018-08-20T21:33:39.915Z,21.40
2018-08-20T21:36:08.115Z,21.30
2018-08-20T21:38:36.256Z,21.40
2018-08-20T21:41:04.339Z,21.50
2018-08-20T21:43:37.992Z,21.50
2018-08-20T21:46:06.329Z,21.40
2018-08-20T21:48:34.491Z,21.50
2018-08-20T21:51:08.174Z,21.40
2018-08-20T21:53:37.503Z,21.40
2018-08-20T21:56:07.831Z,21.30
2018-08-20T21:58:44.045Z,21.30
2018-08-20T22:01:13.490Z,21.30
2018-08-20T22:03:42.160Z,21.30
2018-08-20T22:06:10.535Z,21.30
2018-08-20T22:08:38.631Z,21.30
2018-08-20T22:11:06.876Z,21.30
2018-08-20T22:13:34.951Z,21.20
2018-08-20T22:16:20.206Z,21.20
2018-08-20T22:18:55.746Z,21.10
2018-08-20T22:21:24.094Z,21.10
2018-08-20T22:23:55.480Z,21.10
2018-08-20T22:26:23.571Z,21.00
2018-08-20T22:28:52.079Z,21.00
2018-08-20T22:31:20.631Z,21.00
2018-08-20T22:33:57.062Z,20.90
2018-08-20T22:36:25.735Z,20.90
2018-08-20T22:38:54.910Z,20.80
2018-08-20T22:41:24.356Z,20.80
2018-08-20T22:43:52.462Z,20.80
2018-08-20T22:46:21.498Z,20.70
2018-08-20T22:48:50.271Z,20.70
2018-08-20T22:51:19.075Z,20.70
2018-08-20T22:53:49.454Z,20.70
2018-08-20T22:56:25.568Z,20.70
2018-08-20T22:59:09.932Z,20.60
2018-08-20T23:01:38.033Z,20.50
2018-08-20T23:04:06.410Z,20.50
2018-08-20T23:06:34.519Z,20.50
2018-08-20T23:09:19.700Z,20.40
2018-08-20T23:11:47.804Z,20.30
2018-08-20T23:14:15.906Z,20.30
2018-08-20T23:16:44.185Z,20.30
2018-08-20T23:19:12.364Z,20.30
2018-08-20T23:21:44.608Z,20.20
2018-08-20T23:24:13.585Z,20.20
2018-08-20T23:26:41.787Z,20.20
2018-08-20T23:29:10.145Z,20.20
2018-08-20T23:31:38.601Z,20.10
2018-08-20T23:34:08.518Z,20.10
2018-08-20T23:36:36.671Z,20.10
2018-08-20T23:39:07.377Z,20.10
2018-08-20T23:41:35.530Z,20.10
2018-08-20T23:44:03.627Z,20.10
2018-08-20T23:46:36.494Z,20.10
2018-08-20T23:49:04.598Z,20.10
2018-08-20T23:51:32.691Z,20.10
2018-08-20T23:54:00.795Z,20.10
2018-08-20T23:56:28.885Z,20.00
2018-08-20T23:58:57.039Z,20.00
